Time;durP1;ratioP1;P1;durP2;ratioP2;P2;SDS_P1;SDS_P2;PMS_P1;PMS_P2;Temp;Humidity;BMP_temperature;BMP_pressure;BME280_temperature;BME280_humidity;BME280_pressure;Samples;Min_cycle;Max_cycle;Signal;HPM_P1;HPM_P2
2022/01/07 00:02:02;;;;;;;2.58;1.95;;;5.20;99.90;;;;;;4908621;29;20035;-80
2022/01/07 00:05:03;;;;;;;2.58;2.13;;;5.20;99.90;;;;;;4894879;29;20087;-80
2022/01/07 00:15:19;;;;;;;;;;;;;;;;;;;;;
2022/01/07 00:18:21;;;;;;;2.80;1.70;;;5.20;99.90;;;;;;4938911;28;20416;-80
2022/01/07 00:24:30;;;;;;;3.05;1.58;;;5.30;99.90;;;;;;4897063;29;20072;-80
2022/01/07 00:34:09;;;;;;;2.05;1.60;;;5.40;99.90;;;;;;4840995;29;20123;-80
2022/01/07 00:36:51;;;;;;;2.85;1.83;;;5.40;99.90;;;;;;4896176;29;20048;-80
2022/01/07 00:52:29;;;;;;;1.58;1.20;;;5.40;93.20;;;;;;4912500;28;20043;-80
2022/01/07 01:08:15;;;;;;;0.82;0.70;;;5.50;86.40;;;;;;4895910;29;20064;-80
2022/01/07 01:15:25;;;;;;;;;;;;;;;;;;;;;
2022/01/07 01:18:07;;;;;;;2.15;0.98;;;5.30;84.70;;;;;;4930028;29;20126;-80
2022/01/07 02:31:41;;;;;;;;;;;;;;;;;;;;;
2022/01/07 02:34:11;;;;;;;1.08;1.02;;;5.00;78.70;;;;;;4931106;29;20024;-80
2022/01/07 02:36:58;;;;;;;;;;;;;;;;;;;;;
2022/01/07 02:50:33;;;;;;;0.95;0.85;;;4.80;82.00;;;;;;4894263;29;20040;-80
2022/01/07 03:00:48;;;;;;;2.22;1.08;;;4.80;81.70;;;;;;4893746;29;20042;-80
2022/01/07 03:14:07;;;;;;;2.80;1.20;;;4.60;83.00;;;;;;4815786;29;20825;-79
2022/01/07 03:16:58;;;;;;;0.85;0.82;;;4.60;83.10;;;;;;4827776;29;20042;-80
2022/01/07 03:23:25;;;;;;;;;;;;;;;;;;;;;
2022/01/07 03:36:11;;;;;;;1.10;0.93;;;4.50;84.00;;;;;;4808623;29;20090;-79
2022/01/07 03:49:43;;;;;;;1.02;0.75;;;4.30;84.10;;;;;;4819365;29;20122;-79
2022/01/07 03:59:33;;;;;;;1.23;0.90;;;4.50;83.40;;;;;;4912525;28;20070;-79
2022/01/07 04:34:30;;;;;;;1.05;0.77;;;4.10;83.30;;;;;;4768973;29;20126;-80
2022/01/07 04:37:44;;;;;;;1.65;1.05;;;4.10;81.50;;;;;;4781303;29;20567;-80
2022/01/07 04:50:16;;;;;;;1.65;0.95;;;4.10;79.70;;;;;;4843457;29;20462;-79
2022/01/07 05:17:11;;;;;;;1.92;1.00;;;4.10;74.90;;;;;;4839402;29;20048;-79
2022/01/07 05:19:41;;;;;;;1.38;0.80;;;4.00;73.80;;;;;;4851568;29;20435;-79
2022/01/07 05:22:42;;;;;;;1.40;1.17;;;3.90;74.00;;;;;;4947742;28;20110;-80
2022/01/07 05:26:07;;;;;;;;;;;;;;;;;;;;;
2022/01/07 05:28:46;;;;;;;4.43;0.90;;;3.90;73.70;;;;;;4888357;28;20041;-80
2022/01/07 05:34:21;;;;;;;1.65;1.30;;;3.80;73.00;;;;;;4897437;28;20115;-80
2022/01/07 05:40:12;;;;;;;2.63;0.90;;;3.80;72.00;;;;;;4942532;28;20040;-80
2022/01/07 05:49:25;;;;;;;1.88;0.77;;;3.80;69.80;;;;;;4945244;28;20114;-79
2022/01/07 05:52:00;;;;;;;2.17;1.00;;;3.80;69.10;;;;;;4908350;28;20514;-79
2022/01/07 05:54:50;;;;;;;1.00;0.82;;;3.80;68.10;;;;;;4891632;29;20036;-79
2022/01/07 06:01:14;;;;;;;1.40;0.80;;;3.90;68.80;;;;;;4912146;28;20473;-79
2022/01/07 06:03:40;;;;;;;;;;;;;;;;;;;;;
2022/01/07 06:20:42;;;;;;;1.77;1.02;;;3.60;69.50;;;;;;4869705;29;20074;-80
2022/01/07 06:23:29;;;;;;;1.35;1.00;;;3.50;70.30;;;;;;4876027;29;20044;-80
2022/01/07 06:29:57;;;;;;;2.53;1.13;;;3.50;72.50;;;;;;4780054;30;20075;-80
2022/01/07 06:32:48;;;;;;;0.90;0.90;;;3.40;73.30;;;;;;4774668;30;20041;-80
2022/01/07 06:35:16;;;;;;;1.80;0.88;;;3.30;73.40;;;;;;4806552;29;20070;-80
2022/01/07 06:42:00;;;;;;;;;;;;;;;;;;;;;
2022/01/07 06:44:20;;;;;;;3.00;1.15;;;3.20;76.20;;;;;;4749293;30;20119;-81
2022/01/07 06:47:21;;;;;;;;;;;;;;;;;;;;;
2022/01/07 06:49:48;;;;;;;1.55;1.08;;;3.10;75.30;;;;;;4908542;29;20047;-80
2022/01/07 06:52:33;;;;;;;4.65;1.50;;;3.10;75.00;;;;;;4895722;29;20403;-80
2022/01/07 06:55:10;;;;;;;2.67;1.30;;;3.10;77.00;;;;;;4903876;29;20455;-80
2022/01/07 07:01:51;;;;;;;6.45;3.42;;;3.10;75.50;;;;;;4873053;29;20037;-81
2022/01/07 07:04:21;;;;;;;12.60;5.10;;;3.00;76.30;;;;;;4879822;29;20024;-80
2022/01/07 07:09:40;;;;;;;7.07;4.32;;;3.00;77.10;;;;;;4907755;29;20047;-81
2022/01/07 07:12:07;;;;;;;2.35;1.30;;;2.90;76.80;;;;;;4902064;28;20088;-81
2022/01/07 07:14:36;;;;;;;92.10;39.40;;;3.00;77.20;;;;;;4901312;28;20051;-80
2022/01/07 07:17:24;;;;;;;8.02;4.55;;;3.00;77.00;;;;;;4877950;28;20028;-81
2022/01/07 07:20:00;;;;;;;1.38;1.10;;;3.10;79.20;;;;;;4895230;29;20483;-81
2022/01/07 07:22:26;;;;;;;6.13;3.67;;;3.10;76.20;;;;;;4908532;29;20463;-81
2022/01/07 07:24:58;;;;;;;3.67;1.33;;;3.20;76.20;;;;;;4903232;29;20087;-81
2022/01/07 07:27:24;;;;;;;5.65;1.10;;;3.20;77.70;;;;;;4900247;28;20052;-80
2022/01/07 07:29:50;;;;;;;4.25;2.63;;;3.20;76.10;;;;;;4896672;28;20051;-80
2022/01/07 07:32:22;;;;;;;14.85;8.70;;;3.30;78.30;;;;;;4899863;28;20036;-81
2022/01/07 07:36:26;;;;;;;3.58;2.17;;;3.30;78.40;;;;;;4878711;29;20039;-80
2022/01/07 07:37:49;;;;;;;2.45;1.38;;;3.30;75.40;;;;;;4894160;29;20037;-80
2022/01/07 07:40:38;;;;;;;4.63;1.45;;;3.40;75.20;;;;;;4903240;29;20083;-81
2022/01/07 07:43:04;;;;;;;2.17;1.45;;;3.50;74.40;;;;;;4886280;28;20114;-82
2022/01/07 07:45:52;;;;;;;1.60;1.10;;;3.50;77.20;;;;;;4909596;29;20033;-84
2022/01/07 07:48:53;;;;;;;1.33;1.17;;;3.60;73.50;;;;;;4910045;29;20052;-83
2022/01/07 07:51:33;;;;;;;1.23;1.13;;;3.70;73.70;;;;;;4886598;29;20040;-81
2022/01/07 07:53:59;;;;;;;1.25;1.08;;;3.80;73.40;;;;;;4894443;29;20033;-81
2022/01/07 07:56:59;;;;;;;;;;;;;;;;;;;;;
2022/01/07 07:59:28;;;;;;;1.58;1.25;;;3.80;73.20;;;;;;4899203;29;20028;-81
2022/01/07 08:02:24;;;;;;;;;;;;;;;;;;;;;
2022/01/07 08:04:59;;;;;;;2.25;1.38;;;3.90;74.80;;;;;;4904719;29;20525;-81
2022/01/07 08:07:40;;;;;;;2.40;1.48;;;4.00;72.10;;;;;;4894041;28;20040;-81
2022/01/07 08:13:28;;;;;;;4.40;1.80;;;4.10;76.40;;;;;;4914558;28;20040;-82
2022/01/07 08:16:06;;;;;;;3.25;1.40;;;4.10;75.50;;;;;;4909324;29;20028;-81
2022/01/07 08:18:40;;;;;;;3.53;1.67;;;4.20;75.80;;;;;;4912660;28;20017;-81
2022/01/07 08:21:11;;;;;;;3.95;1.30;;;4.30;74.20;;;;;;4906664;29;20041;-81
2022/01/07 08:23:50;;;;;;;1.35;1.23;;;4.30;74.40;;;;;;4876306;29;20036;-81
2022/01/07 08:26:38;;;;;;;2.80;1.73;;;4.30;73.70;;;;;;4906895;28;20041;-82
2022/01/07 08:29:19;;;;;;;2.85;1.85;;;4.40;74.50;;;;;;4894190;28;20075;-81
2022/01/07 08:35:03;;;;;;;2.00;1.67;;;4.50;74.30;;;;;;4899038;29;20087;-81
2022/01/07 08:37:51;;;;;;;2.72;1.35;;;4.60;75.10;;;;;;4911511;29;20229;-81
2022/01/07 08:40:26;;;;;;;4.28;2.20;;;4.60;75.00;;;;;;4900824;28;20067;-81
2022/01/07 08:43:08;;;;;;;;;;;;;;;;;;;;;
2022/01/07 08:48:47;;;;;;;;;;;;;;;;;;;;;
2022/01/07 08:54:21;;;;;;;3.75;2.17;;;4.80;72.50;;;;;;4893070;28;20044;-81
2022/01/07 08:56:50;;;;;;;3.55;1.73;;;4.80;73.90;;;;;;4904029;28;20056;-81
2022/01/07 08:59:16;;;;;;;5.25;1.92;;;4.90;72.10;;;;;;4897390;28;20095;-81
2022/01/07 09:01:50;;;;;;;3.03;1.70;;;4.90;72.10;;;;;;4896799;29;20052;-81
2022/01/07 09:04:16;;;;;;;3.10;1.85;;;5.00;71.30;;;;;;4897186;29;20036;-81
2022/01/07 09:06:42;;;;;;;2.83;1.70;;;5.10;72.40;;;;;;4914105;28;20099;-81
2022/01/07 09:09:11;;;;;;;2.38;1.70;;;5.10;70.50;;;;;;4913032;29;20039;-81
2022/01/07 09:11:37;;;;;;;3.63;1.60;;;5.20;71.20;;;;;;4910513;29;20463;-81
2022/01/07 09:14:14;;;;;;;2.53;1.80;;;5.30;71.20;;;;;;4912341;28;20124;-81
2022/01/07 09:16:52;;;;;;;2.15;1.60;;;5.30;71.30;;;;;;4910478;29;20068;-82
2022/01/07 09:19:24;;;;;;;3.35;1.80;;;5.40;71.20;;;;;;4911008;28;20020;-81
2022/01/07 09:21:56;;;;;;;3.78;2.08;;;5.40;70.70;;;;;;4904609;28;20031;-81
2022/01/07 09:24:27;;;;;;;2.88;1.80;;;5.30;71.30;;;;;;4910133;28;20547;-80
2022/01/07 09:26:53;;;;;;;3.03;1.80;;;5.40;71.40;;;;;;4901968;29;20100;-81
2022/01/07 09:29:27;;;;;;;2.15;1.80;;;5.30;71.00;;;;;;4898447;29;20036;-81
2022/01/07 09:31:55;;;;;;;5.03;1.95;;;5.40;69.40;;;;;;4920356;28;20036;-82
2022/01/07 09:34:23;;;;;;;2.55;1.88;;;5.50;71.40;;;;;;4916040;28;20015;-81
2022/01/07 09:36:50;;;;;;;3.40;2.03;;;5.50;71.00;;;;;;4931049;28;20028;-81
2022/01/07 09:39:29;;;;;;;2.17;1.58;;;5.60;73.40;;;;;;4910996;28;20024;-82
2022/01/07 09:41:55;;;;;;;2.22;1.88;;;5.60;69.90;;;;;;4896851;29;20052;-81
2022/01/07 09:44:24;;;;;;;2.33;1.90;;;5.60;70.70;;;;;;4899259;28;20020;-81
2022/01/07 09:46:54;;;;;;;1.77;1.67;;;5.60;70.80;;;;;;4913510;28;20040;-81
2022/01/07 09:49:33;;;;;;;2.58;2.00;;;5.60;71.10;;;;;;4892884;29;20745;-81
2022/01/07 09:52:02;;;;;;;2.67;1.80;;;5.70;71.00;;;;;;4879396;29;20626;-81
2022/01/07 09:54:37;;;;;;;2.92;2.00;;;5.80;71.20;;;;;;4895818;28;20032;-81
2022/01/07 09:57:09;;;;;;;2.50;2.00;;;5.80;71.80;;;;;;4895979;28;20388;-81
2022/01/07 09:59:50;;;;;;;3.45;2.13;;;5.90;70.80;;;;;;4898922;28;20031;-81
2022/01/07 10:02:19;;;;;;;3.65;2.15;;;5.80;71.00;;;;;;4895524;29;20032;-81
2022/01/07 10:04:45;;;;;;;3.58;2.40;;;5.90;71.10;;;;;;4897331;29;20028;-81
2022/01/07 10:07:31;;;;;;;2.65;2.10;;;5.90;70.50;;;;;;4913303;29;20051;-82
2022/01/07 10:10:17;;;;;;;2.35;2.10;;;6.10;71.60;;;;;;4911462;29;20497;-81
2022/01/07 10:13:00;;;;;;;3.15;1.95;;;6.20;70.60;;;;;;4913180;29;20052;-81
2022/01/07 10:15:34;;;;;;;2.75;2.15;;;6.20;70.10;;;;;;4901504;28;20623;-81
2022/01/07 10:18:25;;;;;;;4.07;2.40;;;6.20;69.20;;;;;;4912175;29;20028;-81
2022/01/07 10:20:54;;;;;;;4.65;2.30;;;6.20;70.10;;;;;;4891070;29;20049;-81
2022/01/07 10:23:37;;;;;;;2.92;2.38;;;6.30;69.70;;;;;;4895497;28;20037;-81
2022/01/07 10:26:06;;;;;;;3.20;2.30;;;6.40;68.60;;;;;;4896075;29;20037;-81
2022/01/07 10:29:18;;;;;;;3.25;2.00;;;6.50;67.10;;;;;;4894634;29;20025;-82
2022/01/07 10:32:16;;;;;;;3.35;1.73;;;6.60;67.20;;;;;;4899338;28;20041;-81
2022/01/07 10:35:00;;;;;;;3.58;1.90;;;6.60;68.10;;;;;;4900439;29;20040;-81
2022/01/07 10:37:28;;;;;;;3.40;1.65;;;6.60;67.30;;;;;;4912706;28;20085;-82
2022/01/07 10:39:54;;;;;;;2.35;1.42;;;6.60;66.00;;;;;;4909947;29;20028;-81
2022/01/07 10:42:28;;;;;;;3.28;1.48;;;6.60;65.70;;;;;;4894994;29;20033;-81
2022/01/07 10:45:04;;;;;;;2.70;1.90;;;6.60;65.80;;;;;;4895910;28;20025;-81
2022/01/07 10:47:30;;;;;;;4.35;1.80;;;6.60;66.10;;;;;;4894458;29;20403;-81
2022/01/07 10:50:27;;;;;;;2.10;1.48;;;6.70;66.80;;;;;;4895796;29;20061;-81
2022/01/07 10:53:23;;;;;;;2.10;1.65;;;6.70;63.60;;;;;;4894632;29;20024;-82
2022/01/07 10:56:40;;;;;;;3.65;1.60;;;6.70;66.00;;;;;;4896059;29;20029;-81
2022/01/07 11:02:15;;;;;;;2.88;1.98;;;6.80;65.60;;;;;;4923769;28;20040;-81
2022/01/07 11:04:47;;;;;;;3.25;2.00;;;6.80;65.90;;;;;;4906390;29;20068;-81
2022/01/07 11:07:19;;;;;;;3.28;1.85;;;6.90;67.90;;;;;;4903654;29;20044;-82
2022/01/07 11:09:45;;;;;;;2.85;1.90;;;7.00;64.80;;;;;;4894422;28;20032;-81
2022/01/07 11:12:14;;;;;;;1.92;1.70;;;7.00;66.00;;;;;;4902127;28;20056;-81
2022/01/07 11:14:41;;;;;;;3.25;2.15;;;7.10;67.30;;;;;;4897585;29;20029;-81
2022/01/07 11:17:10;;;;;;;2.80;2.00;;;7.10;66.20;;;;;;4894520;29;20037;-81
2022/01/07 11:20:03;;;;;;;2.47;1.90;;;7.10;67.50;;;;;;4900053;29;20167;-81
2022/01/07 11:22:42;;;;;;;3.78;2.00;;;7.10;66.80;;;;;;4912313;29;20035;-81
2022/01/07 11:25:13;;;;;;;3.25;2.10;;;7.10;66.70;;;;;;4905651;28;20037;-82
2022/01/07 11:27:50;;;;;;;5.93;2.50;;;7.20;66.10;;;;;;4907640;29;20509;-81
2022/01/07 11:30:22;;;;;;;2.30;1.88;;;7.20;67.10;;;;;;4910615;28;20525;-82
2022/01/07 11:32:52;;;;;;;3.03;1.80;;;7.30;64.50;;;;;;4912704;28;20031;-81
2022/01/07 11:35:30;;;;;;;3.42;2.50;;;7.30;64.30;;;;;;4908812;28;20280;-81
2022/01/07 11:38:00;;;;;;;4.25;2.17;;;7.30;65.60;;;;;;4912014;28;20028;-83
2022/01/07 11:40:50;;;;;;;2.78;1.92;;;7.40;65.20;;;;;;4900788;28;20029;-81
2022/01/07 11:43:37;;;;;;;2.28;1.75;;;7.40;64.00;;;;;;4915470;28;20035;-82
2022/01/07 11:46:36;;;;;;;2.90;2.15;;;7.30;65.00;;;;;;4908562;29;20040;-81
2022/01/07 11:49:03;;;;;;;3.50;1.88;;;7.30;65.30;;;;;;4916699;28;20036;-81
2022/01/07 11:52:12;;;;;;;6.70;1.92;;;7.40;66.20;;;;;;4908926;29;20045;-81
2022/01/07 11:54:46;;;;;;;2.58;2.03;;;7.40;63.40;;;;;;4919369;28;20368;-81
2022/01/07 11:57:27;;;;;;;;;;;;;;;;;;;;;
2022/01/07 12:00:21;;;;;;;3.08;1.92;;;7.30;62.40;;;;;;4906794;29;20040;-81
2022/01/07 12:03:37;;;;;;;3.33;2.17;;;7.30;64.40;;;;;;4911968;29;20032;-81
2022/01/07 12:06:30;;;;;;;3.10;2.25;;;7.30;66.10;;;;;;4909254;29;20123;-81
2022/01/07 12:09:10;;;;;;;10.40;2.28;;;7.40;66.30;;;;;;4894897;28;20106;-81
2022/01/07 12:11:41;;;;;;;2.35;1.63;;;7.40;66.20;;;;;;4911053;28;20048;-81
2022/01/07 12:14:19;;;;;;;3.97;2.35;;;7.40;65.50;;;;;;4909594;29;20040;-81
2022/01/07 12:17:15;;;;;;;2.55;2.15;;;7.40;65.50;;;;;;4908028;29;20016;-82
2022/01/07 12:20:01;;;;;;;2.65;2.20;;;7.50;65.70;;;;;;4889864;29;20395;-82
2022/01/07 12:22:27;;;;;;;3.03;2.35;;;7.50;66.20;;;;;;4893709;28;20124;-81
2022/01/07 12:25:03;;;;;;;3.08;1.73;;;7.50;65.00;;;;;;4900386;29;20126;-81
2022/01/07 12:28:02;;;;;;;3.80;2.20;;;7.50;64.90;;;;;;4911404;29;20074;-82
2022/01/07 12:30:28;;;;;;;4.80;2.00;;;7.70;65.30;;;;;;4907885;29;20040;-82
2022/01/07 12:32:59;;;;;;;3.08;1.80;;;8.30;61.90;;;;;;4911636;28;20403;-81
2022/01/07 12:35:34;;;;;;;2.05;1.83;;;9.00;61.40;;;;;;4909325;28;20039;-82
2022/01/07 12:38:11;;;;;;;2.53;1.83;;;10.00;58.90;;;;;;4894949;28;20036;-82
2022/01/07 12:41:03;;;;;;;2.90;1.90;;;12.30;56.20;;;;;;4894179;29;20039;-82
2022/01/07 12:43:50;;;;;;;3.08;1.98;;;14.10;52.70;;;;;;4895106;29;20040;-81
2022/01/07 12:46:21;;;;;;;2.90;2.30;;;15.20;50.60;;;;;;4894964;28;20041;-82
2022/01/07 12:49:14;;;;;;;3.28;1.92;;;15.60;49.00;;;;;;4893137;29;20033;-81
2022/01/07 12:51:40;;;;;;;2.20;1.60;;;16.30;48.00;;;;;;4918600;28;20037;-82
2022/01/07 12:54:11;;;;;;;2.20;1.55;;;16.10;46.30;;;;;;4893772;29;20024;-82
2022/01/07 12:56:40;;;;;;;2.72;1.98;;;16.00;46.10;;;;;;4893818;29;20119;-82
2022/01/07 12:59:17;;;;;;;5.53;2.10;;;16.10;45.20;;;;;;4893984;29;20028;-81
2022/01/07 13:02:07;;;;;;;2.72;1.90;;;16.00;45.10;;;;;;4904426;28;20048;-81
2022/01/07 13:04:40;;;;;;;1.58;1.45;;;16.00;45.50;;;;;;4916506;29;20057;-81
2022/01/07 13:07:12;;;;;;;2.10;1.63;;;16.50;45.50;;;;;;4910869;29;20585;-81
2022/01/07 13:09:38;;;;;;;3.83;1.90;;;16.50;43.90;;;;;;4928162;29;20437;-81
2022/01/07 13:12:04;;;;;;;4.63;1.70;;;16.10;44.20;;;;;;4927572;28;20111;-83
2022/01/07 13:14:33;;;;;;;2.75;1.95;;;16.40;43.70;;;;;;4906546;28;20062;-81
2022/01/07 13:17:03;;;;;;;2.72;1.70;;;16.60;43.90;;;;;;4893356;29;20063;-81
2022/01/07 13:19:33;;;;;;;1.95;1.58;;;16.10;44.10;;;;;;4895406;29;20110;-81
2022/01/07 13:22:39;;;;;;;2.30;1.70;;;15.80;45.00;;;;;;4893460;28;20386;-81
2022/01/07 13:25:08;;;;;;;1.83;1.70;;;16.30;43.30;;;;;;4876562;29;20558;-81
2022/01/07 13:27:34;;;;;;;3.22;2.10;;;16.90;43.60;;;;;;4893671;28;20078;-81
2022/01/07 13:30:00;;;;;;;3.85;1.40;;;16.90;42.10;;;;;;4891673;28;20122;-81
2022/01/07 13:32:28;;;;;;;1.58;1.48;;;17.00;42.10;;;;;;4913910;28;20492;-81
2022/01/07 13:35:04;;;;;;;2.35;1.70;;;17.00;41.60;;;;;;4906370;29;20072;-81
2022/01/07 13:37:40;;;;;;;4.55;1.63;;;17.00;41.60;;;;;;4909263;28;20032;-82
2022/01/07 13:40:06;;;;;;;1.75;1.60;;;16.90;41.10;;;;;;4910921;28;20060;-81
2022/01/07 13:42:34;;;;;;;2.58;1.77;;;17.80;41.00;;;;;;4913431;28;20390;-81
2022/01/07 13:45:03;;;;;;;4.00;1.88;;;18.50;40.40;;;;;;4905498;29;20743;-81
2022/01/07 13:47:36;;;;;;;2.53;1.67;;;19.70;40.00;;;;;;4879043;29;20083;-82
2022/01/07 13:50:11;;;;;;;2.83;1.85;;;19.20;39.10;;;;;;4881484;29;20036;-81
2022/01/07 13:52:41;;;;;;;4.03;1.90;;;18.60;39.70;;;;;;4895898;28;20504;-81
2022/01/07 13:55:30;;;;;;;2.83;2.40;;;19.10;39.90;;;;;;4901224;29;20024;-83
2022/01/07 13:58:10;;;;;;;4.32;1.92;;;19.70;38.80;;;;;;4905942;28;20091;-84
2022/01/07 14:00:38;;;;;;;3.00;2.22;;;20.10;37.70;;;;;;4918475;28;20119;-87
2022/01/07 14:03:08;;;;;;;2.70;1.92;;;19.80;38.70;;;;;;4899748;28;20506;-85
2022/01/07 14:05:37;;;;;;;2.03;1.67;;;20.00;38.80;;;;;;4891048;29;20033;-81
2022/01/07 14:08:15;;;;;;;2.00;1.80;;;19.70;37.80;;;;;;4913052;29;20048;-82
2022/01/07 14:10:41;;;;;;;2.10;1.75;;;19.40;38.70;;;;;;4900554;28;20044;-81
2022/01/07 14:13:15;;;;;;;3.58;1.80;;;18.90;39.70;;;;;;4906236;28;20499;-81
2022/01/07 14:15:46;;;;;;;2.58;2.10;;;19.40;39.00;;;;;;4900130;29;20036;-82
2022/01/07 14:18:20;;;;;;;3.42;2.03;;;19.70;39.20;;;;;;4948788;28;20043;-82
2022/01/07 14:21:18;;;;;;;3.17;2.08;;;19.60;38.60;;;;;;4905152;29;20021;-82
2022/01/07 14:23:50;;;;;;;3.70;2.00;;;19.60;38.30;;;;;;4928205;28;20048;-81
2022/01/07 14:26:17;;;;;;;2.28;1.60;;;19.00;39.20;;;;;;4934267;28;20035;-82
2022/01/07 14:28:46;;;;;;;2.97;2.15;;;17.50;40.40;;;;;;4980836;28;20499;-81
2022/01/07 14:31:17;;;;;;;3.30;2.10;;;16.20;40.80;;;;;;4919001;28;20086;-81
2022/01/07 14:33:47;;;;;;;3.55;1.90;;;14.40;44.00;;;;;;4912805;28;20025;-81
2022/01/07 14:36:15;;;;;;;5.00;2.28;;;13.30;46.40;;;;;;4928284;28;20391;-81
2022/01/07 14:38:45;;;;;;;4.25;1.92;;;11.90;47.60;;;;;;4937620;28;20021;-81
2022/01/07 14:41:11;;;;;;;3.05;2.05;;;10.30;50.70;;;;;;4924178;28;20506;-81
2022/01/07 14:43:37;;;;;;;3.65;2.20;;;9.30;53.20;;;;;;4917351;28;20125;-81
2022/01/07 14:46:05;;;;;;;2.15;1.70;;;9.00;54.40;;;;;;4934427;28;20043;-80
2022/01/07 14:48:31;;;;;;;5.60;2.50;;;8.70;54.60;;;;;;4965977;28;20026;-81
2022/01/07 14:50:56;;;;;;;3.10;2.00;;;8.60;54.70;;;;;;4920924;28;20029;-81
2022/01/07 14:53:24;;;;;;;3.72;2.30;;;8.90;54.70;;;;;;4994156;28;20030;-81
2022/01/07 14:55:51;;;;;;;3.13;2.20;;;9.10;55.00;;;;;;4935057;28;20112;-80
2022/01/07 14:58:17;;;;;;;3.70;2.00;;;8.90;55.40;;;;;;4948935;28;20029;-80
2022/01/07 15:00:45;;;;;;;3.78;2.50;;;8.30;55.80;;;;;;4934024;28;20028;-81
2022/01/07 15:03:23;;;;;;;2.38;2.17;;;7.80;57.20;;;;;;4953056;28;20026;-81
2022/01/07 15:06:13;;;;;;;3.85;2.30;;;7.60;59.10;;;;;;4916223;28;20082;-80
2022/01/07 15:08:42;;;;;;;4.25;2.20;;;7.20;59.70;;;;;;4930051;28;20036;-81
2022/01/07 15:11:12;;;;;;;4.65;2.75;;;6.90;60.60;;;;;;4911251;28;20426;-80
2022/01/07 15:13:37;;;;;;;5.20;2.50;;;6.70;61.00;;;;;;4963045;28;20050;-80
2022/01/07 15:18:53;;;;;;;2.85;2.35;;;6.20;65.20;;;;;;4913013;29;20081;-80
2022/01/07 15:21:19;;;;;;;3.35;2.50;;;6.20;64.90;;;;;;4909548;28;20115;-80
2022/01/07 15:23:45;;;;;;;3.10;2.38;;;6.00;65.20;;;;;;4889207;28;20021;-81
2022/01/07 15:26:43;;;;;;;5.72;3.28;;;5.80;66.50;;;;;;4900069;28;20040;-80
2022/01/07 15:29:40;;;;;;;5.72;3.33;;;5.60;68.50;;;;;;4902745;29;20028;-81
2022/01/07 15:32:07;;;;;;;3.63;2.50;;;5.40;67.90;;;;;;4877661;29;20082;-80
2022/01/07 15:34:33;;;;;;;3.65;2.42;;;5.20;69.20;;;;;;4907821;28;20064;-81
2022/01/07 15:36:59;;;;;;;3.22;2.63;;;5.00;68.70;;;;;;4895402;28;20468;-80
2022/01/07 15:39:35;;;;;;;2.90;2.28;;;4.90;68.70;;;;;;4895056;28;20013;-80
2022/01/07 15:42:02;;;;;;;3.10;2.30;;;4.80;70.30;;;;;;4882962;29;20463;-81
2022/01/07 15:44:28;;;;;;;2.83;2.38;;;4.70;69.30;;;;;;4902652;29;20035;-81
2022/01/07 15:47:41;;;;;;;6.07;2.78;;;4.60;69.70;;;;;;4907607;28;20040;-81
2022/01/07 15:50:11;;;;;;;3.70;2.50;;;4.50;70.10;;;;;;4915546;28;20369;-79
2022/01/07 15:52:41;;;;;;;3.03;2.28;;;4.40;69.00;;;;;;4909880;28;20064;-82
2022/01/07 15:55:07;;;;;;;5.38;2.30;;;4.30;70.40;;;;;;4885585;29;20032;-81
2022/01/07 15:57:36;;;;;;;4.30;2.35;;;4.30;70.40;;;;;;4897396;29;20034;-78
2022/01/07 16:00:05;;;;;;;19.30;2.22;;;4.20;70.10;;;;;;4912982;28;20108;-79
2022/01/07 16:02:36;;;;;;;2.88;2.30;;;4.10;70.50;;;;;;4911588;28;20033;-79
2022/01/07 16:05:33;;;;;;;4.50;2.60;;;4.10;70.70;;;;;;5000922;28;20084;-83
2022/01/07 16:08:30;;;;;;;;;;;;;;;;;;;;;
2022/01/07 16:10:57;;;;;;;4.68;2.53;;;4.00;70.40;;;;;;4896725;29;20039;-81
2022/01/07 16:13:43;;;;;;;4.45;2.30;;;3.90;71.70;;;;;;4902004;28;20119;-82
2022/01/07 16:16:31;;;;;;;4.07;2.38;;;3.90;72.40;;;;;;4909476;28;20411;-79
2022/01/07 16:19:13;;;;;;;5.00;2.50;;;3.80;71.60;;;;;;4909131;28;20084;-82
2022/01/07 16:21:45;;;;;;;3.95;2.28;;;3.80;73.40;;;;;;4900388;29;20137;-82
2022/01/07 16:24:29;;;;;;;2.25;2.03;;;3.70;72.50;;;;;;4946534;28;20515;-81
2022/01/07 16:26:55;;;;;;;5.50;3.15;;;3.70;72.20;;;;;;4904175;29;20397;-80
2022/01/07 16:29:51;;;;;;;5.80;2.60;;;3.70;73.30;;;;;;4947145;28;20373;-81
2022/01/07 16:32:17;;;;;;;2.70;2.28;;;3.70;73.40;;;;;;4908204;28;20375;-81
2022/01/07 16:34:43;;;;;;;3.85;2.78;;;3.60;74.10;;;;;;4919865;28;20150;-81
2022/01/07 16:37:15;;;;;;;3.45;2.53;;;3.60;74.00;;;;;;4914898;28;20068;-81
2022/01/07 16:39:54;;;;;;;;;;;3.50;74.10;;;;;;4896786;28;20043;-81
2022/01/07 16:42:29;;;;;;;2.28;1.85;;;3.50;74.00;;;;;;4925041;28;19915;-80
2022/01/07 16:44:58;;;;;;;4.00;2.47;;;3.50;74.20;;;;;;4943783;28;20071;-78
2022/01/07 16:47:36;;;;;;;2.15;1.73;;;3.50;73.80;;;;;;4927442;28;20044;-83
2022/01/07 16:50:03;;;;;;;4.72;2.40;;;3.50;72.10;;;;;;4912187;28;20091;-81
2022/01/07 16:52:57;;;;;;;2.92;2.38;;;3.50;72.70;;;;;;4932305;28;20138;-80
2022/01/07 16:55:30;;;;;;;3.25;2.20;;;3.50;73.20;;;;;;4907685;28;20025;-81
2022/01/07 16:58:52;;;;;;;2.92;2.40;;;3.40;72.90;;;;;;4908112;28;20029;-81
2022/01/07 17:00:59;;;;;;;3.35;2.33;;;3.40;74.30;;;;;;4923085;28;20051;-80
2022/01/07 17:03:28;;;;;;;3.42;2.20;;;3.30;74.90;;;;;;4959371;28;20043;-81
2022/01/07 17:05:54;;;;;;;3.88;2.15;;;3.30;74.80;;;;;;4924568;28;20394;-81
2022/01/07 17:08:20;;;;;;;3.03;2.38;;;3.30;74.70;;;;;;4913232;29;20114;-82
2022/01/07 17:10:46;;;;;;;3.17;2.53;;;3.30;73.50;;;;;;4909743;28;20047;-84
2022/01/07 17:13:12;;;;;;;3.50;2.50;;;3.30;74.10;;;;;;4897324;28;20498;-82
2022/01/07 17:15:44;;;;;;;4.22;2.15;;;3.30;73.50;;;;;;4911633;28;20455;-82
2022/01/07 17:18:13;;;;;;;4.18;2.53;;;3.30;73.00;;;;;;4968705;28;20044;-80
2022/01/07 17:20:42;;;;;;;4.47;2.60;;;3.20;74.20;;;;;;4905386;29;20036;-84
2022/01/07 17:23:10;;;;;;;3.58;2.38;;;3.20;75.00;;;;;;4902389;29;20059;-82
2022/01/07 17:25:39;;;;;;;4.07;2.28;;;3.10;74.20;;;;;;4900687;29;20038;-82
2022/01/07 17:28:24;;;;;;;3.53;2.30;;;3.00;73.90;;;;;;4901839;28;20037;-82
2022/01/07 17:31:06;;;;;;;9.43;5.22;;;3.00;75.30;;;;;;4934040;28;20119;-82
2022/01/07 17:33:31;;;;;;;9.83;5.67;;;3.00;74.30;;;;;;4907235;28;20035;-82
2022/01/07 17:35:58;;;;;;;12.43;6.60;;;3.00;74.70;;;;;;4888937;29;20276;-83
2022/01/07 17:38:24;;;;;;;26.20;10.35;;;2.90;74.90;;;;;;4905814;28;20487;-82
2022/01/07 17:40:50;;;;;;;9.15;4.85;;;2.90;73.80;;;;;;4904544;29;20028;-82
2022/01/07 17:43:16;;;;;;;5.82;3.50;;;2.90;73.80;;;;;;4880084;28;20033;-81
2022/01/07 17:46:00;;;;;;;3.58;2.50;;;2.80;74.40;;;;;;4915643;29;20081;-82
2022/01/07 17:48:28;;;;;;;4.25;2.60;;;2.80;73.70;;;;;;4905754;28;20090;-81
2022/01/07 17:51:00;;;;;;;4.10;2.30;;;2.80;74.10;;;;;;4901681;29;20415;-87
2022/01/07 17:53:31;;;;;;;3.63;2.30;;;2.80;73.10;;;;;;4899216;29;20562;-87
2022/01/07 17:56:12;;;;;;;3.47;2.35;;;2.80;73.20;;;;;;4911431;29;20494;-86
2022/01/07 17:58:41;;;;;;;3.92;2.40;;;2.80;72.70;;;;;;4904688;28;20032;-81
2022/01/07 18:01:06;;;;;;;5.95;3.00;;;2.80;73.20;;;;;;4906889;28;20035;-80
2022/01/07 18:03:34;;;;;;;5.45;2.72;;;2.80;73.00;;;;;;4909918;29;20076;-81
2022/01/07 18:06:15;;;;;;;3.45;2.30;;;2.80;72.90;;;;;;4907340;28;20020;-87
2022/01/07 18:08:41;;;;;;;3.65;2.13;;;2.80;73.90;;;;;;4914334;28;20036;-81
2022/01/07 18:11:07;;;;;;;5.22;2.83;;;2.80;72.60;;;;;;4894599;28;20079;-80
2022/01/07 18:13:32;;;;;;;3.17;2.40;;;2.80;72.40;;;;;;4913622;28;20549;-81
2022/01/07 18:15:58;;;;;;;3.28;2.35;;;2.80;71.30;;;;;;4896688;29;20627;-81
2022/01/07 18:18:24;;;;;;;3.90;2.30;;;2.80;73.10;;;;;;4894786;28;20060;-80
2022/01/07 18:20:53;;;;;;;3.83;2.25;;;2.80;71.90;;;;;;4906369;28;20079;-81
2022/01/07 18:23:19;;;;;;;4.07;2.40;;;2.70;71.50;;;;;;4894323;29;20041;-80
2022/01/07 18:25:48;;;;;;;4.55;2.80;;;2.70;71.90;;;;;;4896139;29;20059;-80
2022/01/07 18:28:27;;;;;;;6.43;2.78;;;2.70;71.80;;;;;;4913212;29;20051;-81
2022/01/07 18:30:53;;;;;;;5.25;2.25;;;2.60;71.50;;;;;;4898044;29;20060;-81
2022/01/07 18:33:19;;;;;;;3.13;2.33;;;2.60;71.00;;;;;;4895071;29;20448;-80
2022/01/07 18:35:45;;;;;;;4.53;2.47;;;2.60;71.00;;;;;;4896583;28;20063;-80
2022/01/07 18:38:12;;;;;;;3.53;2.25;;;2.60;71.00;;;;;;4895028;29;20032;-81
2022/01/07 18:40:40;;;;;;;6.20;2.85;;;2.60;70.80;;;;;;4896222;28;20044;-81
2022/01/07 18:43:07;;;;;;;4.03;2.58;;;2.60;70.70;;;;;;4894827;29;20031;-80
2022/01/07 18:45:33;;;;;;;3.28;2.30;;;2.60;70.30;;;;;;4879098;29;20091;-81
2022/01/07 18:48:02;;;;;;;5.32;2.45;;;2.60;70.70;;;;;;4895169;28;20048;-80
2022/01/07 18:50:31;;;;;;;3.75;2.33;;;2.70;71.00;;;;;;4905514;29;20032;-80
2022/01/07 18:52:57;;;;;;;4.30;2.72;;;2.60;70.90;;;;;;4896220;28;20503;-79
2022/01/07 18:55:24;;;;;;;3.67;2.83;;;2.60;71.20;;;;;;4889111;28;20047;-81
2022/01/07 18:57:51;;;;;;;4.80;2.65;;;2.60;72.10;;;;;;4913500;28;20020;-80
2022/01/07 19:00:20;;;;;;;5.97;2.72;;;2.50;72.20;;;;;;4902283;28;20029;-80
2022/01/07 19:02:47;;;;;;;5.72;3.03;;;2.60;73.10;;;;;;4894699;29;20025;-81
2022/01/07 19:05:13;;;;;;;3.85;2.47;;;2.60;73.50;;;;;;4896834;28;20044;-81
2022/01/07 19:07:44;;;;;;;6.05;2.90;;;2.50;73.80;;;;;;4877785;29;20040;-80
2022/01/07 19:10:10;;;;;;;3.65;2.85;;;2.50;74.70;;;;;;4895809;29;20024;-81